Terminal Aerodrome Forecast
Issued by NWS

Home | Current Version | Previous Version | Text Only | Print | Product List | Glossary On
Versions: 1 2 3 4 5 6 7 8 9 10 11 12 13 14 15
000
FTUS43 KSGF 231500 AAB
TAFJLN
TAF AMD
KJLN 231543Z 2316/2412 36008KT P6SM BKN015
     FM231800 02010KT P6SM SCT050
     FM240200 05005KT P6SM SKC=

USA.gov is the U.S. government's official web portal to all federal, state and local government web resources and services.